Time;durP1;ratioP1;P1;durP2;ratioP2;P2;SDS_P1;SDS_P2;PMS_P1;PMS_P2;Temp;Humidity;BMP_temperature;BMP_pressure;BME280_temperature;BME280_humidity;BME280_pressure;Samples;Min_cycle;Max_cycle;Signal;HPM_P1;HPM_P2
2021/05/27 00:01:27;;;;;;;0.60;0.40;;;12.40;84.40;;;;;;5035870;28;20026;-81
2021/05/27 00:03:53;;;;;;;0.40;0.40;;;12.30;84.60;;;;;;5006220;28;20026;-81
2021/05/27 00:06:18;;;;;;;0.50;0.30;;;12.30;84.90;;;;;;4996696;28;20477;-81
2021/05/27 00:08:44;;;;;;;0.50;0.40;;;12.30;85.00;;;;;;4996552;28;20057;-81
2021/05/27 00:11:10;;;;;;;0.63;0.50;;;12.30;84.90;;;;;;4997091;28;20045;-81
2021/05/27 00:13:36;;;;;;;0.50;0.40;;;12.30;84.90;;;;;;5011367;28;20099;-81
2021/05/27 00:16:01;;;;;;;0.50;0.40;;;12.30;85.00;;;;;;4996698;28;20059;-81
2021/05/27 00:18:27;;;;;;;0.57;0.40;;;12.40;84.50;;;;;;4996106;28;20021;-81
2021/05/27 00:21:02;;;;;;;0.40;0.30;;;12.60;83.60;;;;;;4996087;28;20034;-82
2021/05/27 00:23:28;;;;;;;0.45;0.40;;;12.60;83.80;;;;;;4996424;28;20022;-82
2021/05/27 00:25:54;;;;;;;0.50;0.40;;;12.60;83.70;;;;;;4995825;28;20026;-82
2021/05/27 00:28:20;;;;;;;0.50;0.40;;;12.50;83.60;;;;;;5041426;28;20148;-82
2021/05/27 00:30:46;;;;;;;0.60;0.40;;;12.40;84.10;;;;;;5014719;28;20054;-82
2021/05/27 00:33:11;;;;;;;0.50;0.40;;;12.40;83.70;;;;;;4996407;28;20539;-82
2021/05/27 00:35:37;;;;;;;0.80;0.50;;;12.40;83.70;;;;;;5027467;28;20030;-81
2021/05/27 00:38:03;;;;;;;0.70;0.45;;;12.30;84.30;;;;;;4995996;28;20412;-81
2021/05/27 00:40:29;;;;;;;1.30;0.40;;;12.20;84.50;;;;;;4996192;28;20053;-82
2021/05/27 00:42:54;;;;;;;0.47;0.47;;;12.20;84.20;;;;;;4995733;28;20058;-81
2021/05/27 00:45:20;;;;;;;0.40;0.40;;;12.00;84.60;;;;;;4996384;28;20034;-81
2021/05/27 00:47:46;;;;;;;0.82;0.52;;;12.00;84.70;;;;;;5027180;28;20113;-82
2021/05/27 00:50:23;;;;;;;1.08;0.60;;;11.90;84.80;;;;;;4995224;28;20026;-82
2021/05/27 00:52:53;;;;;;;0.47;0.40;;;12.00;84.70;;;;;;4995868;28;20481;-82
2021/05/27 00:55:24;;;;;;;0.43;0.40;;;12.10;84.20;;;;;;4995954;28;20040;-82
2021/05/27 00:57:50;;;;;;;0.60;0.40;;;12.00;84.30;;;;;;4996059;28;20041;-82
2021/05/27 01:00:19;;;;;;;0.40;0.40;;;12.10;84.00;;;;;;4995862;28;21107;-82
2021/05/27 01:02:45;;;;;;;0.68;0.50;;;12.20;83.50;;;;;;4996090;28;20027;-82
2021/05/27 01:05:12;;;;;;;0.57;0.40;;;12.20;83.40;;;;;;4994337;28;20026;-83
2021/05/27 01:07:38;;;;;;;0.50;0.40;;;12.20;83.40;;;;;;5028401;28;20046;-84
2021/05/27 01:10:09;;;;;;;0.50;0.40;;;12.30;82.90;;;;;;5010739;28;20023;-82
2021/05/27 01:12:35;;;;;;;0.45;0.40;;;12.30;82.60;;;;;;4999153;28;20103;-82
2021/05/27 01:17:54;;;;;;;0.50;0.40;;;12.30;81.90;;;;;;4999823;28;20397;-84
2021/05/27 01:20:20;;;;;;;0.40;0.40;;;12.40;81.60;;;;;;5000182;28;20133;-83
2021/05/27 01:22:46;;;;;;;0.60;0.50;;;12.30;81.60;;;;;;4999318;28;20112;-82
2021/05/27 01:25:12;;;;;;;0.50;0.40;;;12.20;81.90;;;;;;4999902;28;20042;-82
2021/05/27 01:27:39;;;;;;;0.50;0.40;;;12.30;81.90;;;;;;5006765;28;20026;-82
2021/05/27 01:30:08;;;;;;;0.50;0.50;;;12.30;81.70;;;;;;5006946;28;20065;-82
2021/05/27 01:32:35;;;;;;;0.65;0.40;;;12.30;81.70;;;;;;4997740;28;20517;-81
2021/05/27 01:35:01;;;;;;;0.65;0.45;;;12.30;81.40;;;;;;4997813;28;20026;-81
2021/05/27 01:37:27;;;;;;;0.70;0.40;;;12.30;81.60;;;;;;5001840;28;20109;-82
2021/05/27 01:39:54;;;;;;;0.95;0.50;;;12.10;82.00;;;;;;4999103;28;20069;-82
2021/05/27 01:42:20;;;;;;;0.60;0.50;;;12.10;82.20;;;;;;4999732;28;20022;-81
2021/05/27 01:44:45;;;;;;;0.43;0.38;;;12.00;81.90;;;;;;4998940;28;20054;-81
2021/05/27 01:47:11;;;;;;;0.40;0.30;;;12.00;81.70;;;;;;4999082;28;20034;-82
2021/05/27 01:49:41;;;;;;;0.55;0.47;;;12.10;81.70;;;;;;5009451;28;20917;-82
2021/05/27 01:52:07;;;;;;;0.40;0.40;;;12.10;81.40;;;;;;4998958;28;20050;-82
2021/05/27 01:54:33;;;;;;;0.50;0.40;;;12.20;81.60;;;;;;4998616;28;20060;-82
2021/05/27 01:56:58;;;;;;;0.47;0.40;;;12.30;81.00;;;;;;4998737;28;20027;-82
2021/05/27 01:59:24;;;;;;;0.68;0.40;;;12.40;81.00;;;;;;4999324;28;20046;-82
2021/05/27 02:01:50;;;;;;;0.75;0.40;;;12.40;80.80;;;;;;4998481;28;20037;-82
2021/05/27 02:04:15;;;;;;;0.50;0.40;;;12.30;81.00;;;;;;4999022;28;20053;-82
2021/05/27 02:06:41;;;;;;;0.40;0.40;;;12.30;81.00;;;;;;4998384;28;20492;-82
2021/05/27 02:09:10;;;;;;;0.50;0.40;;;12.20;81.50;;;;;;4999057;28;20491;-82
2021/05/27 02:11:41;;;;;;;0.60;0.50;;;12.30;81.40;;;;;;4998926;28;20060;-82
2021/05/27 02:14:09;;;;;;;0.73;0.30;;;12.30;81.10;;;;;;4998182;28;20112;-82
2021/05/27 02:16:36;;;;;;;0.70;0.50;;;12.30;81.00;;;;;;4998952;28;20015;-82
2021/05/27 02:19:03;;;;;;;0.50;0.40;;;12.30;81.00;;;;;;4997875;28;20045;-82
2021/05/27 02:21:29;;;;;;;0.43;0.35;;;12.30;81.00;;;;;;4998555;28;20019;-82
2021/05/27 02:23:56;;;;;;;0.40;0.40;;;12.20;81.40;;;;;;4997622;28;20058;-82
2021/05/27 02:26:22;;;;;;;0.40;0.40;;;12.20;81.30;;;;;;4998234;28;20022;-81
2021/05/27 02:28:49;;;;;;;0.50;0.40;;;12.20;81.70;;;;;;5015066;28;20141;-82
2021/05/27 02:31:16;;;;;;;0.60;0.50;;;12.30;81.40;;;;;;5005436;28;20053;-81
2021/05/27 02:33:42;;;;;;;0.63;0.50;;;12.30;81.70;;;;;;4998585;28;20034;-82
2021/05/27 02:36:08;;;;;;;0.50;0.40;;;12.30;81.60;;;;;;4998005;28;20022;-82
2021/05/27 02:38:34;;;;;;;0.75;0.50;;;12.30;81.60;;;;;;4998771;28;20063;-82
2021/05/27 02:41:00;;;;;;;0.40;0.40;;;12.20;82.10;;;;;;4999713;28;20477;-81
2021/05/27 02:43:26;;;;;;;0.50;0.40;;;12.10;82.00;;;;;;4999924;28;20544;-82
2021/05/27 02:45:52;;;;;;;0.50;0.40;;;12.10;82.00;;;;;;4999847;28;20023;-82
2021/05/27 02:48:17;;;;;;;0.75;0.40;;;12.10;82.10;;;;;;4999986;28;20018;-82
2021/05/27 02:50:43;;;;;;;0.52;0.40;;;12.20;81.70;;;;;;4998075;28;20023;-82
2021/05/27 02:53:09;;;;;;;1.27;0.40;;;12.30;81.00;;;;;;4997338;28;20034;-82
2021/05/27 02:55:35;;;;;;;0.50;0.40;;;12.20;81.60;;;;;;4997856;28;20557;-82
2021/05/27 02:58:00;;;;;;;0.47;0.38;;;12.20;81.80;;;;;;4997416;28;20031;-82
2021/05/27 03:00:26;;;;;;;0.60;0.50;;;12.20;81.70;;;;;;4997636;28;20124;-81
2021/05/27 03:02:52;;;;;;;0.40;0.40;;;12.20;81.80;;;;;;4997706;28;20057;-82
2021/05/27 03:05:18;;;;;;;0.60;0.50;;;12.30;81.40;;;;;;4997117;28;20030;-82
2021/05/27 03:07:43;;;;;;;0.60;0.50;;;12.20;82.00;;;;;;4998050;28;20100;-82
2021/05/27 03:10:10;;;;;;;0.50;0.40;;;12.20;82.10;;;;;;4995944;28;20090;-82
2021/05/27 03:12:35;;;;;;;0.63;0.40;;;12.20;81.60;;;;;;4997324;28;20036;-82
2021/05/27 03:15:01;;;;;;;0.45;0.45;;;12.30;81.50;;;;;;4997156;28;20034;-82
2021/05/27 03:17:27;;;;;;;0.40;0.30;;;12.30;81.70;;;;;;4996572;28;20121;-82
2021/05/27 03:19:52;;;;;;;0.40;0.40;;;12.30;81.20;;;;;;5012362;28;20065;-82
2021/05/27 03:22:18;;;;;;;0.75;0.50;;;12.40;80.80;;;;;;4997226;28;20086;-82
2021/05/27 03:24:43;;;;;;;0.50;0.40;;;12.40;80.60;;;;;;4997224;28;20119;-81
2021/05/27 03:27:10;;;;;;;0.52;0.40;;;12.40;80.50;;;;;;5000563;28;20033;-83
2021/05/27 03:29:36;;;;;;;0.52;0.50;;;12.50;80.20;;;;;;5016840;28;20550;-82
2021/05/27 03:32:02;;;;;;;0.40;0.40;;;12.50;80.20;;;;;;5012619;28;20026;-82
2021/05/27 03:34:35;;;;;;;0.40;0.40;;;12.50;80.20;;;;;;4996138;28;20096;-81
2021/05/27 03:37:01;;;;;;;0.50;0.40;;;12.30;80.80;;;;;;4995867;28;20489;-82
2021/05/27 03:39:27;;;;;;;0.60;0.40;;;12.40;80.50;;;;;;4996655;28;20030;-82
2021/05/27 03:41:52;;;;;;;0.50;0.40;;;12.30;80.60;;;;;;5028583;28;20065;-82
2021/05/27 03:44:18;;;;;;;0.60;0.40;;;12.40;80.20;;;;;;4996689;28;20384;-82
2021/05/27 03:46:44;;;;;;;0.55;0.40;;;12.40;80.40;;;;;;4997079;28;20098;-82
2021/05/27 03:49:09;;;;;;;0.50;0.50;;;12.30;80.60;;;;;;4996446;28;20078;-81
2021/05/27 03:51:40;;;;;;;0.40;0.40;;;12.30;81.20;;;;;;4996657;28;20122;-82
2021/05/27 03:54:06;;;;;;;0.55;0.40;;;12.20;81.80;;;;;;4996565;28;20069;-82
2021/05/27 03:56:32;;;;;;;0.50;0.43;;;11.90;82.20;;;;;;4995455;28;20046;-82
2021/05/27 04:01:42;;;;;;;0.80;0.50;;;12.10;81.70;;;;;;4996410;28;20037;-81
2021/05/27 04:07:11;;;;;;;1.02;0.50;;;12.20;81.90;;;;;;4996225;28;20045;-82
2021/05/27 04:09:38;;;;;;;0.55;0.40;;;12.20;82.10;;;;;;4996881;28;20022;-82
2021/05/27 04:17:34;;;;;;;0.40;0.38;;;12.30;80.90;;;;;;4996025;28;20044;-82
2021/05/27 04:20:06;;;;;;;0.60;0.50;;;12.30;81.00;;;;;;4996041;28;20651;-82
2021/05/27 04:22:32;;;;;;;0.82;0.50;;;12.20;81.50;;;;;;4996264;28;20337;-82
2021/05/27 04:24:58;;;;;;;0.65;0.40;;;12.20;81.60;;;;;;4995843;28;20080;-82
2021/05/27 04:27:23;;;;;;;0.70;0.55;;;12.10;82.40;;;;;;5001930;28;20404;-82
2021/05/27 04:29:52;;;;;;;0.60;0.50;;;12.20;82.00;;;;;;5003064;28;20054;-82
2021/05/27 04:35:02;;;;;;;0.47;0.40;;;12.10;82.30;;;;;;4995668;28;20130;-81
2021/05/27 04:37:28;;;;;;;0.60;0.47;;;12.10;82.10;;;;;;5027758;28;20042;-82
2021/05/27 04:39:53;;;;;;;1.08;0.60;;;12.20;81.40;;;;;;5027268;28;20049;-82
2021/05/27 04:42:19;;;;;;;0.80;0.50;;;12.20;81.80;;;;;;4995803;28;20394;-82
2021/05/27 04:44:45;;;;;;;0.65;0.50;;;12.00;81.80;;;;;;4995674;28;20026;-82
2021/05/27 04:47:10;;;;;;;0.50;0.40;;;11.90;82.00;;;;;;4999724;28;20519;-82
2021/05/27 04:49:36;;;;;;;0.60;0.50;;;11.90;82.00;;;;;;4999823;28;20060;-83
2021/05/27 04:52:02;;;;;;;0.70;0.50;;;11.80;81.80;;;;;;5000820;28;20041;-92
2021/05/27 04:54:28;;;;;;;0.57;0.43;;;11.70;82.10;;;;;;5001536;28;20030;-89
2021/05/27 04:56:53;;;;;;;0.52;0.50;;;11.70;82.00;;;;;;5016250;28;20512;-91
2021/05/27 04:59:19;;;;;;;0.60;0.50;;;11.70;81.90;;;;;;5033050;28;20072;-87
2021/05/27 05:01:45;;;;;;;0.85;0.50;;;11.70;81.70;;;;;;5009613;28;20027;-86
2021/05/27 05:04:10;;;;;;;0.50;0.40;;;11.60;82.00;;;;;;5025125;28;20017;-89
2021/05/27 05:06:36;;;;;;;0.50;0.45;;;11.50;82.30;;;;;;5020142;28;20022;-93
2021/05/27 05:09:03;;;;;;;0.70;0.45;;;11.50;82.30;;;;;;5011563;28;20030;-90
2021/05/27 05:11:29;;;;;;;0.80;0.50;;;11.40;82.30;;;;;;4999933;28;20547;-90
2021/05/27 05:13:55;;;;;;;0.63;0.50;;;11.40;83.10;;;;;;5008508;28;20035;-91
2021/05/27 05:16:21;;;;;;;0.70;0.50;;;11.40;83.60;;;;;;4998456;28;20057;-90
2021/05/27 05:18:46;;;;;;;0.90;0.50;;;11.30;84.20;;;;;;4999334;28;20030;-88
2021/05/27 05:21:12;;;;;;;1.50;0.50;;;11.30;84.10;;;;;;5014251;28;20029;-87
2021/05/27 05:23:38;;;;;;;0.55;0.50;;;11.60;82.80;;;;;;5017099;28;20029;-85
2021/05/27 05:26:04;;;;;;;0.82;0.50;;;11.70;82.80;;;;;;5017687;28;20033;-84
2021/05/27 05:28:29;;;;;;;0.60;0.50;;;11.80;82.50;;;;;;5017227;28;20195;-90
2021/05/27 05:30:55;;;;;;;0.75;0.50;;;11.90;82.80;;;;;;5014961;28;20489;-90
2021/05/27 05:33:20;;;;;;;0.90;0.50;;;12.00;82.40;;;;;;5014547;28;20550;-89
2021/05/27 05:35:46;;;;;;;0.63;0.47;;;12.30;82.10;;;;;;5012202;28;20045;-89
2021/05/27 05:38:12;;;;;;;0.60;0.50;;;12.30;81.60;;;;;;5018242;28;20026;-90
2021/05/27 05:40:37;;;;;;;1.50;0.57;;;12.60;80.90;;;;;;5017966;28;20082;-90
2021/05/27 05:43:03;;;;;;;0.80;0.50;;;12.80;81.00;;;;;;5051448;28;20400;-89
2021/05/27 05:45:29;;;;;;;1.23;0.50;;;12.90;80.10;;;;;;5015591;28;20026;-89
2021/05/27 05:47:56;;;;;;;0.55;0.40;;;13.00;80.20;;;;;;4999859;28;20026;-89
2021/05/27 05:53:09;;;;;;;0.60;0.47;;;13.20;79.40;;;;;;5003791;28;20065;-91
2021/05/27 05:55:35;;;;;;;0.70;0.50;;;13.30;79.00;;;;;;5009435;28;20044;-89
2021/05/27 05:58:02;;;;;;;0.50;0.40;;;13.50;78.70;;;;;;5048584;28;20030;-91
2021/05/27 06:00:28;;;;;;;0.38;0.32;;;13.70;77.90;;;;;;5015689;28;20081;-90
2021/05/27 06:02:54;;;;;;;0.70;0.50;;;13.80;77.60;;;;;;5016023;28;20542;-89
2021/05/27 06:05:19;;;;;;;0.88;0.43;;;14.00;76.90;;;;;;5050387;28;20300;-88
2021/05/27 06:07:45;;;;;;;0.52;0.45;;;14.20;75.50;;;;;;5004048;28;20052;-87
2021/05/27 06:10:11;;;;;;;0.50;0.40;;;14.30;74.90;;;;;;5016228;28;20137;-92
2021/05/27 06:12:39;;;;;;;0.70;0.50;;;14.40;74.30;;;;;;5015913;28;20102;-88
2021/05/27 06:15:06;;;;;;;0.70;0.47;;;14.50;73.30;;;;;;5016270;28;20092;-89
2021/05/27 06:17:32;;;;;;;0.80;0.60;;;14.60;73.10;;;;;;5010211;28;20018;-90
2021/05/27 06:19:57;;;;;;;1.15;0.80;;;14.70;71.10;;;;;;5017781;28;20080;-86
2021/05/27 06:22:23;;;;;;;1.27;0.68;;;14.70;71.70;;;;;;5016988;28;20111;-83
2021/05/27 06:24:49;;;;;;;0.80;0.52;;;14.80;72.10;;;;;;5013595;28;20032;-90
2021/05/27 06:27:15;;;;;;;1.20;0.50;;;14.90;72.90;;;;;;5011973;28;20033;-90
2021/05/27 06:29:40;;;;;;;0.70;0.50;;;15.00;70.30;;;;;;5016798;28;20112;-90
2021/05/27 06:32:06;;;;;;;0.50;0.40;;;14.90;72.00;;;;;;5017142;28;20080;-91
2021/05/27 06:34:32;;;;;;;0.65;0.50;;;14.80;71.10;;;;;;5016717;28;20053;-90
2021/05/27 06:36:57;;;;;;;0.68;0.40;;;14.80;70.70;;;;;;5049356;28;20447;-89
2021/05/27 06:39:24;;;;;;;0.50;0.50;;;14.90;71.40;;;;;;5016635;28;20404;-89
2021/05/27 06:41:50;;;;;;;0.57;0.50;;;15.10;71.40;;;;;;5016563;28;20025;-90
2021/05/27 06:44:15;;;;;;;1.42;0.60;;;15.30;70.90;;;;;;5015355;28;20097;-90
2021/05/27 06:46:41;;;;;;;0.60;0.50;;;15.20;69.80;;;;;;5015653;28;20049;-92
2021/05/27 06:49:07;;;;;;;0.65;0.45;;;15.30;69.10;;;;;;5016273;28;20044;-91
2021/05/27 06:51:33;;;;;;;0.65;0.50;;;15.40;70.60;;;;;;5014772;28;20132;-90
2021/05/27 06:53:59;;;;;;;0.40;0.40;;;15.40;70.80;;;;;;5016972;28;20026;-91
2021/05/27 06:56:24;;;;;;;0.47;0.40;;;15.50;70.20;;;;;;5016178;28;20084;-89
2021/05/27 06:58:50;;;;;;;0.40;0.38;;;15.80;68.00;;;;;;5015511;28;20037;-91
2021/05/27 07:01:16;;;;;;;0.70;0.50;;;16.10;67.40;;;;;;5014875;28;20030;-92
2021/05/27 07:03:41;;;;;;;0.60;0.30;;;16.50;66.80;;;;;;5014752;28;20021;-90
2021/05/27 07:06:07;;;;;;;0.73;0.40;;;16.40;66.20;;;;;;5013281;28;20030;-91
2021/05/27 07:08:33;;;;;;;0.47;0.30;;;16.50;65.00;;;;;;5013456;28;20034;-90
2021/05/27 07:10:59;;;;;;;0.50;0.35;;;16.60;66.20;;;;;;5044869;28;20154;-91
2021/05/27 07:13:25;;;;;;;0.50;0.30;;;16.70;65.70;;;;;;5031100;28;20102;-91
2021/05/27 07:15:51;;;;;;;0.40;0.30;;;16.70;63.60;;;;;;5017051;28;20069;-91
2021/05/27 07:18:17;;;;;;;1.42;0.50;;;16.70;63.80;;;;;;5017544;28;20038;-92
2021/05/27 07:20:43;;;;;;;0.50;0.30;;;16.60;65.20;;;;;;5050227;28;20034;-92
2021/05/27 07:23:12;;;;;;;0.52;0.35;;;16.80;63.20;;;;;;5049956;28;20121;-92
2021/05/27 07:25:38;;;;;;;0.52;0.30;;;16.80;63.60;;;;;;5042007;28;20022;-91
2021/05/27 07:28:04;;;;;;;0.60;0.30;;;16.70;61.60;;;;;;5049272;28;20033;-91
2021/05/27 07:30:30;;;;;;;0.93;0.40;;;16.80;64.00;;;;;;5016618;28;20042;-88
2021/05/27 07:32:57;;;;;;;0.50;0.30;;;16.90;61.80;;;;;;5016002;28;20034;-91
2021/05/27 07:35:25;;;;;;;0.45;0.32;;;17.10;61.30;;;;;;5015991;28;20022;-92
2021/05/27 07:37:52;;;;;;;0.50;0.30;;;17.10;62.10;;;;;;5050275;28;20048;-91
2021/05/27 07:40:18;;;;;;;0.40;0.30;;;17.10;62.80;;;;;;5049779;28;20049;-91
2021/05/27 07:42:44;;;;;;;0.40;0.30;;;17.30;60.30;;;;;;5016445;28;20032;-92
2021/05/27 07:45:10;;;;;;;0.73;0.50;;;17.20;60.90;;;;;;5048381;28;20021;-91
2021/05/27 07:47:36;;;;;;;0.43;0.30;;;17.30;60.90;;;;;;5018200;28;20581;-91
2021/05/27 07:50:04;;;;;;;0.30;0.30;;;17.50;61.70;;;;;;5049090;28;20021;-91
2021/05/27 07:52:30;;;;;;;1.25;0.40;;;17.60;58.10;;;;;;5036758;28;20493;-91
2021/05/27 07:54:55;;;;;;;0.63;0.30;;;17.60;59.10;;;;;;5016166;28;20032;-89
2021/05/27 07:57:22;;;;;;;0.30;0.20;;;17.70;60.00;;;;;;5012433;28;20041;-89
2021/05/27 07:59:47;;;;;;;0.30;0.20;;;17.60;56.70;;;;;;5043566;28;20171;-89
2021/05/27 08:02:14;;;;;;;0.30;0.20;;;17.80;55.90;;;;;;5015329;28;20064;-93
2021/05/27 08:04:42;;;;;;;0.40;0.20;;;17.80;56.70;;;;;;5045482;28;20014;-90
2021/05/27 08:07:11;;;;;;;0.38;0.20;;;18.10;57.90;;;;;;5047460;28;20424;-93
2021/05/27 08:09:38;;;;;;;0.30;0.20;;;18.30;55.60;;;;;;5048765;28;20024;-90
2021/05/27 08:12:05;;;;;;;0.22;0.20;;;18.70;55.40;;;;;;5048283;28;20037;-91
2021/05/27 08:14:31;;;;;;;0.43;0.25;;;18.80;53.40;;;;;;5016468;28;20104;-92
2021/05/27 08:16:57;;;;;;;0.73;0.30;;;18.90;53.90;;;;;;5014449;28;20030;-93
2021/05/27 08:19:22;;;;;;;0.30;0.20;;;19.30;53.10;;;;;;5016402;28;20026;-91
2021/05/27 08:21:49;;;;;;;0.57;0.30;;;19.40;55.30;;;;;;5049471;28;20026;-91
2021/05/27 08:24:15;;;;;;;0.60;0.20;;;19.80;55.00;;;;;;5013924;28;20415;-92
2021/05/27 08:26:40;;;;;;;0.43;0.28;;;20.20;48.00;;;;;;5048721;28;20030;-91
2021/05/27 08:29:06;;;;;;;0.68;0.30;;;20.30;47.30;;;;;;5012047;28;20080;-92
2021/05/27 08:31:38;;;;;;;0.47;0.20;;;20.20;49.20;;;;;;5015718;28;20054;-90
2021/05/27 08:34:04;;;;;;;0.90;0.20;;;20.00;47.30;;;;;;5015676;28;20025;-91
2021/05/27 08:36:29;;;;;;;0.40;0.20;;;20.30;48.50;;;;;;5014925;28;20088;-90
2021/05/27 08:38:55;;;;;;;0.68;0.30;;;20.50;48.70;;;;;;5014240;28;20038;-89
2021/05/27 08:41:21;;;;;;;0.25;0.10;;;20.60;46.20;;;;;;5013413;28;20041;-91
2021/05/27 08:43:48;;;;;;;0.20;0.10;;;20.80;47.80;;;;;;5013639;28;20029;-91
2021/05/27 08:46:14;;;;;;;0.52;0.30;;;20.80;44.60;;;;;;5013576;28;20029;-91
2021/05/27 08:48:42;;;;;;;0.15;0.10;;;21.10;45.60;;;;;;5013905;28;20026;-91
2021/05/27 08:51:08;;;;;;;0.43;0.20;;;21.10;46.70;;;;;;5013184;28;20496;-90
2021/05/27 08:53:34;;;;;;;0.30;0.20;;;20.90;45.40;;;;;;5013876;28;20414;-90
2021/05/27 08:56:00;;;;;;;0.45;0.17;;;21.30;42.60;;;;;;5047557;28;20037;-90
2021/05/27 08:58:25;;;;;;;0.60;0.10;;;21.50;44.40;;;;;;5043724;28;20014;-92
2021/05/27 09:00:53;;;;;;;0.20;0.20;;;21.60;45.10;;;;;;5013514;28;20022;-92
2021/05/27 09:03:18;;;;;;;0.30;0.20;;;21.50;43.20;;;;;;5014936;28;20034;-90
2021/05/27 09:05:45;;;;;;;0.20;0.10;;;21.50;42.70;;;;;;5015020;28;20026;-91
2021/05/27 09:08:34;;;;;;;0.30;0.10;;;21.60;42.80;;;;;;5008000;28;20145;-91
2021/05/27 09:11:04;;;;;;;0.20;0.10;;;21.40;44.90;;;;;;5013628;28;20033;-91
2021/05/27 09:13:30;;;;;;;0.10;0.10;;;22.00;45.10;;;;;;5014739;28;20029;-91
2021/05/27 09:16:13;;;;;;;0.30;0.10;;;22.30;42.20;;;;;;5046422;28;20030;-91
2021/05/27 09:18:41;;;;;;;0.40;0.20;;;22.30;42.40;;;;;;5014070;28;20029;-90
2021/05/27 09:21:10;;;;;;;0.10;0.10;;;22.20;42.20;;;;;;4996509;28;20069;-92
2021/05/27 09:23:44;;;;;;;0.95;0.20;;;22.30;42.10;;;;;;5012744;28;20176;-91
2021/05/27 09:26:15;;;;;;;0.30;0.20;;;22.10;42.20;;;;;;5011357;28;20034;-90
2021/05/27 09:28:45;;;;;;;0.30;0.20;;;22.10;44.70;;;;;;5014325;28;20065;-93
2021/05/27 09:31:18;;;;;;;0.22;0.20;;;21.90;43.50;;;;;;5047295;28;20034;-92
2021/05/27 09:33:48;;;;;;;0.43;0.20;;;22.20;45.70;;;;;;5017769;28;20105;-91
2021/05/27 09:36:19;;;;;;;0.30;0.20;;;22.70;43.60;;;;;;5049475;28;20116;-90
2021/05/27 09:38:54;;;;;;;0.43;0.17;;;23.10;43.40;;;;;;5050863;28;20057;-91
2021/05/27 09:41:28;;;;;;;0.30;0.17;;;23.00;40.80;;;;;;5050270;28;20088;-89
2021/05/27 09:43:56;;;;;;;0.20;0.10;;;23.00;41.70;;;;;;5050122;28;20313;-90
2021/05/27 09:46:23;;;;;;;0.10;0.10;;;22.80;40.80;;;;;;5018381;28;20503;-90
2021/05/27 09:49:09;;;;;;;0.65;0.20;;;22.80;40.70;;;;;;5041157;28;20093;-91
2021/05/27 09:51:36;;;;;;;0.10;0.10;;;22.90;40.60;;;;;;5016352;28;20045;-92
2021/05/27 09:54:03;;;;;;;0.10;0.10;;;22.80;40.10;;;;;;5051177;28;20053;-92
2021/05/27 09:56:36;;;;;;;0.50;0.25;;;22.70;39.20;;;;;;5036584;28;20680;-92
2021/05/27 09:59:01;;;;;;;0.32;0.10;;;22.50;40.50;;;;;;5000068;28;20034;-91
2021/05/27 10:01:27;;;;;;;0.20;0.10;;;22.50;39.50;;;;;;5016711;28;20026;-92
2021/05/27 10:03:53;;;;;;;0.10;0.10;;;22.70;41.30;;;;;;5047109;28;20022;-86
2021/05/27 10:06:19;;;;;;;0.10;0.10;;;23.20;38.60;;;;;;5017029;28;20040;-88
2021/05/27 10:08:56;;;;;;;0.10;0.10;;;23.30;38.60;;;;;;5014922;28;20032;-88
2021/05/27 10:11:24;;;;;;;0.10;0.10;;;23.40;41.50;;;;;;5012201;28;20151;-88
2021/05/27 10:13:51;;;;;;;0.32;0.10;;;23.50;42.30;;;;;;5014326;28;20157;-86
2021/05/27 10:16:19;;;;;;;0.10;0.10;;;23.90;41.70;;;;;;5013634;28;20042;-88
2021/05/27 10:18:47;;;;;;;0.60;0.20;;;23.90;39.30;;;;;;5010126;28;20131;-89
2021/05/27 10:21:13;;;;;;;0.40;0.10;;;23.80;41.00;;;;;;5018430;28;20022;-90
2021/05/27 10:23:40;;;;;;;0.20;0.10;;;24.00;38.50;;;;;;5021050;28;20033;-92
2021/05/27 10:26:06;;;;;;;0.10;0.10;;;24.10;38.80;;;;;;5019765;28;20026;-94
2021/05/27 10:28:33;;;;;;;0.10;0.10;;;24.00;39.10;;;;;;5014171;28;20039;-90
2021/05/27 10:30:59;;;;;;;0.10;0.10;;;24.60;37.90;;;;;;5007043;28;20041;-83
2021/05/27 10:33:25;;;;;;;0.10;0.10;;;24.80;38.90;;;;;;5015746;28;20404;-83
2021/05/27 10:35:57;;;;;;;0.20;0.10;;;24.80;38.60;;;;;;5010604;28;20030;-84
2021/05/27 10:38:41;;;;;;;0.20;0.10;;;24.40;40.30;;;;;;5017574;28;20396;-80
2021/05/27 10:41:12;;;;;;;0.30;0.10;;;24.20;39.20;;;;;;5020714;28;20689;-81
2021/05/27 10:44:03;;;;;;;0.30;0.10;;;24.00;38.40;;;;;;5021058;28;20025;-87
2021/05/27 10:46:41;;;;;;;0.20;0.20;;;24.20;38.40;;;;;;5040761;28;20055;-80
2021/05/27 10:49:08;;;;;;;0.40;0.20;;;24.20;42.20;;;;;;5018151;28;20026;-77
2021/05/27 10:51:35;;;;;;;0.35;0.15;;;24.70;40.70;;;;;;5019120;28;20089;-81
2021/05/27 10:54:02;;;;;;;0.05;0.05;;;24.70;40.80;;;;;;5023406;28;20014;-84
2021/05/27 10:56:34;;;;;;;0.00;0.00;;;25.20;38.90;;;;;;5025775;28;20038;-84
2021/05/27 10:59:00;;;;;;;0.10;0.10;;;25.30;37.80;;;;;;5019998;28;20090;-86
2021/05/27 11:01:28;;;;;;;0.00;0.00;;;25.60;37.90;;;;;;5021027;28;20053;-84
2021/05/27 11:04:15;;;;;;;0.17;0.10;;;25.80;37.80;;;;;;5020631;28;20079;-85
2021/05/27 11:06:43;;;;;;;0.10;0.10;;;25.90;38.10;;;;;;5016927;28;20115;-80
2021/05/27 11:11:42;;;;;;;0.20;0.10;;;25.80;38.30;;;;;;5016439;28;20032;-80
2021/05/27 11:14:28;;;;;;;0.15;0.10;;;25.80;37.20;;;;;;5011397;28;20492;-79
2021/05/27 11:25:24;;;;;;;0.10;0.10;;;25.40;39.40;;;;;;5009408;28;20022;-84
2021/05/27 11:28:00;;;;;;;0.30;0.10;;;25.40;38.70;;;;;;5012477;28;20124;-85
2021/05/27 11:30:41;;;;;;;0.17;0.10;;;25.30;37.70;;;;;;5040089;28;20130;-83
2021/05/27 11:33:07;;;;;;;0.10;0.10;;;24.80;38.80;;;;;;5008885;28;20069;-82
2021/05/27 11:35:42;;;;;;;0.10;0.10;;;25.00;37.60;;;;;;5013027;28;20022;-83
2021/05/27 11:38:46;;;;;;;0.22;0.10;;;25.20;37.10;;;;;;5012295;28;20030;-82
2021/05/27 11:41:18;;;;;;;0.28;0.10;;;25.10;38.70;;;;;;4989100;28;20176;-82
2021/05/27 11:43:49;;;;;;;0.10;0.10;;;25.30;38.20;;;;;;5005751;28;20050;-83
2021/05/27 11:46:20;;;;;;;0.13;0.10;;;25.70;36.90;;;;;;5011446;28;20088;-83
2021/05/27 11:51:20;;;;;;;0.05;0.03;;;25.90;36.30;;;;;;5013100;28;20034;-85
2021/05/27 11:53:56;;;;;;;0.10;0.05;;;26.20;35.10;;;;;;5011252;28;20022;-82
2021/05/27 11:56:31;;;;;;;0.03;0.03;;;25.80;34.50;;;;;;5010424;28;20696;-83
2021/05/27 11:58:56;;;;;;;0.10;0.00;;;25.00;37.80;;;;;;5013473;28;20388;-82
2021/05/27 12:01:29;;;;;;;0.10;0.10;;;24.60;38.60;;;;;;5011207;28;20853;-82
2021/05/27 12:04:01;;;;;;;0.10;0.10;;;24.40;38.70;;;;;;5014377;28;20104;-82
2021/05/27 12:06:27;;;;;;;0.17;0.10;;;24.10;38.90;;;;;;5010750;28;20080;-82
2021/05/27 12:08:53;;;;;;;0.32;0.10;;;24.20;38.80;;;;;;5011736;28;20427;-82
2021/05/27 12:11:32;;;;;;;0.10;0.10;;;24.10;40.90;;;;;;5013827;28;20041;-82
2021/05/27 12:14:02;;;;;;;0.10;0.10;;;24.30;38.80;;;;;;5013841;28;20014;-81
2021/05/27 12:16:34;;;;;;;;;;;24.10;37.50;;;;;;5011461;28;20079;-82
2021/05/27 12:19:04;;;;;;;0.15;0.08;;;24.10;39.10;;;;;;5013335;28;19913;-82
2021/05/27 12:21:31;;;;;;;0.10;0.10;;;24.50;38.80;;;;;;5011991;28;20018;-83
2021/05/27 12:23:57;;;;;;;0.28;0.10;;;24.30;39.00;;;;;;5006517;28;20088;-82
2021/05/27 12:26:23;;;;;;;0.10;0.10;;;23.90;40.40;;;;;;5011621;28;20028;-82
2021/05/27 12:28:48;;;;;;;0.10;0.10;;;23.80;38.40;;;;;;5013366;28;20129;-82
2021/05/27 12:31:14;;;;;;;0.10;0.10;;;23.30;39.50;;;;;;5010756;28;20033;-81
2021/05/27 12:33:40;;;;;;;0.10;0.10;;;23.10;41.10;;;;;;5014168;28;20140;-82
2021/05/27 12:36:09;;;;;;;0.10;0.00;;;23.30;41.20;;;;;;5011141;28;20034;-82
2021/05/27 12:38:42;;;;;;;0.20;0.10;;;23.20;41.80;;;;;;5014209;28;20069;-83
2021/05/27 12:41:09;;;;;;;0.35;0.13;;;23.30;41.90;;;;;;5012553;28;20022;-82
2021/05/27 12:43:39;;;;;;;0.35;0.10;;;23.40;42.50;;;;;;5012644;28;20014;-82
2021/05/27 12:46:08;;;;;;;0.15;0.10;;;23.30;43.00;;;;;;5013054;28;20018;-82
2021/05/27 12:48:46;;;;;;;0.65;0.15;;;23.30;43.80;;;;;;5013776;28;20489;-81
2021/05/27 12:51:12;;;;;;;0.03;0.03;;;22.90;43.80;;;;;;5012496;28;20041;-81
2021/05/27 12:53:40;;;;;;;0.30;0.10;;;22.60;44.10;;;;;;5012356;28;20485;-82
2021/05/27 12:56:29;;;;;;;0.10;0.10;;;22.70;43.70;;;;;;5012277;28;20057;-81
2021/05/27 12:59:08;;;;;;;0.25;0.10;;;22.40;45.50;;;;;;5013734;28;20026;-81
2021/05/27 13:01:41;;;;;;;0.10;0.10;;;22.50;44.70;;;;;;5012180;28;20421;-81
2021/05/27 13:04:24;;;;;;;0.17;0.10;;;22.90;44.10;;;;;;5011924;28;20022;-81
2021/05/27 13:06:50;;;;;;;0.45;0.10;;;22.80;43.20;;;;;;5011198;28;20444;-81
2021/05/27 13:09:18;;;;;;;0.10;0.10;;;22.80;42.00;;;;;;5017604;28;20026;-85
2021/05/27 13:11:46;;;;;;;0.10;0.10;;;22.80;42.00;;;;;;5017573;28;20018;-81
2021/05/27 13:14:19;;;;;;;0.55;0.10;;;22.40;44.00;;;;;;5018016;28;20030;-81
2021/05/27 13:16:47;;;;;;;0.10;0.10;;;22.20;43.60;;;;;;5013209;28;20029;-81
2021/05/27 13:19:29;;;;;;;0.10;0.10;;;22.10;43.90;;;;;;5013375;28;20034;-80
2021/05/27 13:22:00;;;;;;;0.25;0.10;;;22.40;43.50;;;;;;5014862;28;20018;-81
2021/05/27 13:24:39;;;;;;;0.10;0.10;;;22.30;44.10;;;;;;5000736;28;20519;-83